»·PEaware :: N1927H KSBA-KWHP

N1927H :: KSBA-KWHP

FLIGHT INFORMATION

Flight Status: Arrived
Operator: Privately registered:
United States
More flights under this callsign
Pilot: Christian U. (16550)
Aircraft: PIPER PA-28R-201 ARROW
(P28R)
More flights by this aircraft type
Origin: KSBA Santa Barbara Mun
United States
Destination: KWHP Whiteman
United States
More flights between these airports :: More routes between these airports
Route: +
File this flight plan on PilotEdge
Remarks:
Altitude:
(Current/Filed)
0ft
Speed:
(Current/Filed)
0kts
Departed: 30-Jan-19 09:59 AM
Arrived: 30-Jan-19 10:37 AM
Distance/Time
Traveled:
71nm/0:38
Distance/Time
To Go:
Arrived

Flight Plot

Page will automatically refresh every two minutes.


Map Options




Map Legend


Flown Route
Filed Route
Departure Airport
Arrival Airport
Navaid (VOR, NDB)
Fix

Horizontal Profiles

Position Reports

Time Latitude Longitude Heading Altitude Ground
Speed
30-Jan-19 09:50 34.432568 -119.835089 71 13ft 0kts
30-Jan-19 09:51 34.432568 -119.835089 71 13ft 0kts
30-Jan-19 09:52 34.432568 -119.835089 71 13ft 0kts
30-Jan-19 09:53 34.432568 -119.835089 71 13ft 0kts
30-Jan-19 09:54 34.431488 -119.837163 250 13ft 18kts
30-Jan-19 09:55 34.430795 -119.839618 269 12ft 0kts
30-Jan-19 09:56 34.430794 -119.839653 267 12ft 2kts
30-Jan-19 09:57 34.430691 -119.839894 238 13ft 3kts
30-Jan-19 09:58 34.416287 -119.835651 161 457ft 87kts
30-Jan-19 09:59 34.391158 -119.827016 162 1211ft 109kts
30-Jan-19 10:00 34.361241 -119.813398 158 1219ft 118kts
30-Jan-19 10:01 34.330691 -119.799303 158 1227ft 116kts
30-Jan-19 10:02 34.306911 -119.779206 100 1444ft 95kts
30-Jan-19 10:03 34.302318 -119.748239 91 2191ft 97kts
30-Jan-19 10:04 34.307776 -119.716147 77 2886ft 103kts
30-Jan-19 10:05 34.315356 -119.674160 77 2595ft 138kts
30-Jan-19 10:06 34.314381 -119.628205 99 2390ft 134kts
30-Jan-19 10:07 34.307653 -119.585368 99 2392ft 127kts
30-Jan-19 10:08 34.300970 -119.543252 99 2393ft 127kts
30-Jan-19 10:09 34.294242 -119.501144 99 2395ft 127kts
30-Jan-19 10:10 34.287478 -119.458995 99 2395ft 128kts
30-Jan-19 10:11 34.280653 -119.416575 99 2396ft 128kts
30-Jan-19 10:12 34.273728 -119.373613 99 2397ft 135kts
30-Jan-19 10:13 34.267297 -119.334126 100 2718ft 125kts
30-Jan-19 10:14 34.260142 -119.292088 100 3186ft 121kts
30-Jan-19 10:15 34.251946 -119.252033 104 3472ft 127kts
30-Jan-19 10:16 34.241882 -119.209920 104 3472ft 131kts
30-Jan-19 10:17 34.231719 -119.167341 103 3472ft 131kts
30-Jan-19 10:18 34.221536 -119.124800 103 3472ft 131kts
30-Jan-19 10:19 34.211840 -119.081961 87 3469ft 130kts
30-Jan-19 10:20 34.216262 -119.038579 81 3473ft 130kts
30-Jan-19 10:21 34.223484 -118.996000 75 3473ft 129kts
30-Jan-19 10:22 34.232126 -118.953618 75 3472ft 130kts
30-Jan-19 10:23 34.240881 -118.911219 74 3472ft 130kts
30-Jan-19 10:24 34.249754 -118.868609 74 3471ft 130kts
30-Jan-19 10:25 34.258652 -118.826076 74 3471ft 131kts
30-Jan-19 10:27 34.267431 -118.783242 81 3471ft 131kts
30-Jan-19 10:28 34.271173 -118.738946 82 3474ft 132kts
30-Jan-19 10:29 34.274721 -118.695054 82 3473ft 133kts
30-Jan-19 10:30 34.272652 -118.650927 99 3363ft 135kts
30-Jan-19 10:31 34.268298 -118.622629 86 3355ft 135kts
30-Jan-19 10:32 34.271261 -118.589468 82 3049ft 146kts
30-Jan-19 10:33 34.276616 -118.553712 76 2720ft 148kts
30-Jan-19 10:34 34.284366 -118.507290 78 2294ft 149kts
30-Jan-19 10:35 34.292738 -118.450440 78 2059ft 139kts
30-Jan-19 10:36 34.275198 -118.419342 194 1737ft 104kts
30-Jan-19 10:37 34.255823 -118.409777 138 971ft 19kts
30-Jan-19 10:38 34.255729 -118.409044 317 970ft 5kts
30-Jan-19 10:39 34.258420 -118.411878 320 984ft 14kts
30-Jan-19 10:40 34.259272 -118.412424 313 989ft 0kts

Navigation Log

Ident Type
Flight plan parsing failed, navigation log unavailable